createdAt,value
2019-03-18T00:01:57.364Z,8.49
2019-03-18T00:04:28.205Z,8.49
2019-03-18T00:06:58.719Z,8.50
2019-03-18T00:09:29.572Z,8.42
2019-03-18T00:12:00.277Z,8.42
2019-03-18T00:14:31.073Z,8.40
2019-03-18T00:17:02.893Z,8.37
2019-03-18T00:19:33.658Z,8.36
2019-03-18T00:22:04.620Z,8.37
2019-03-18T00:24:35.470Z,8.32
2019-03-18T00:27:06.318Z,8.30
2019-03-18T00:29:37.207Z,8.42
2019-03-18T00:32:08.119Z,8.57
2019-03-18T00:34:38.792Z,8.69
2019-03-18T00:37:09.770Z,8.75
2019-03-18T00:39:41.621Z,8.73
2019-03-18T00:42:12.326Z,8.84
2019-03-18T00:44:43.250Z,8.83
2019-03-18T00:47:14.367Z,8.83
2019-03-18T00:49:46.847Z,8.94
2019-03-18T00:52:17.591Z,8.98
2019-03-18T00:54:49.623Z,8.94
2019-03-18T00:57:20.429Z,8.87
2019-03-18T00:59:51.095Z,8.82
2019-03-18T01:02:21.593Z,8.84
2019-03-18T01:04:52.302Z,8.88
2019-03-18T01:07:23.034Z,8.90
2019-03-18T01:09:54.801Z,8.93
2019-03-18T01:12:26.726Z,8.97
2019-03-18T01:14:57.721Z,9.02
2019-03-18T01:17:28.431Z,9.02
2019-03-18T01:19:59.050Z,8.90
2019-03-18T01:22:29.903Z,8.92
2019-03-18T01:25:00.586Z,8.86
2019-03-18T01:27:32.545Z,8.76
2019-03-18T01:30:03.320Z,8.64
2019-03-18T01:32:34.031Z,8.58
2019-03-18T01:35:05.192Z,8.57
2019-03-18T01:37:36.029Z,8.57
2019-03-18T01:40:07.826Z,8.50
2019-03-18T01:42:38.800Z,8.52
2019-03-18T01:45:10.304Z,8.59
2019-03-18T01:47:41.085Z,8.72
2019-03-18T01:50:12.886Z,8.74
2019-03-18T01:52:43.604Z,8.72
2019-03-18T01:55:14.281Z,8.66
2019-03-18T01:57:45.068Z,8.55
2019-03-18T02:00:15.871Z,8.39
2019-03-18T02:02:46.442Z,8.35
2019-03-18T02:05:17.148Z,8.33
2019-03-18T02:07:47.793Z,8.28
2019-03-18T02:10:18.507Z,8.25
2019-03-18T02:12:49.332Z,8.22
2019-03-18T02:15:20.093Z,8.16
2019-03-18T02:17:50.934Z,8.13
2019-03-18T02:20:21.519Z,8.13
2019-03-18T02:22:52.091Z,8.09
2019-03-18T02:25:22.833Z,8.07
2019-03-18T02:27:53.555Z,8.05
2019-03-18T02:30:24.327Z,8.02
2019-03-18T02:32:55.012Z,7.95
2019-03-18T02:35:26.272Z,7.92
2019-03-18T02:37:57.023Z,7.96
2019-03-18T02:40:27.793Z,7.93
2019-03-18T02:42:58.466Z,7.87
2019-03-18T02:45:29.351Z,7.91
2019-03-18T02:48:00.128Z,7.92
2019-03-18T02:50:30.877Z,7.95
2019-03-18T02:53:01.558Z,7.94
2019-03-18T02:55:32.111Z,7.91
2019-03-18T02:58:04.074Z,7.79
2019-03-18T03:00:34.700Z,7.76
2019-03-18T03:03:05.386Z,7.75
2019-03-18T03:05:36.296Z,7.63
2019-03-18T03:08:09.976Z,7.62
2019-03-18T03:10:42.083Z,7.60
2019-03-18T03:13:12.756Z,7.60
2019-03-18T03:15:43.343Z,7.65
2019-03-18T03:18:15.233Z,7.63
2019-03-18T03:20:46.180Z,7.66
2019-03-18T03:23:16.910Z,7.64
2019-03-18T03:25:47.634Z,7.63
2019-03-18T03:28:18.335Z,7.58
2019-03-18T03:30:50.397Z,7.59
2019-03-18T03:33:21.166Z,7.54
2019-03-18T03:35:51.828Z,7.54
2019-03-18T03:38:23.155Z,7.48
2019-03-18T03:40:53.964Z,7.57
2019-03-18T03:43:24.795Z,7.59
2019-03-18T03:45:55.715Z,7.57
2019-03-18T03:48:27.705Z,7.60
2019-03-18T03:50:58.845Z,7.67
2019-03-18T03:53:31.148Z,7.74
2019-03-18T03:56:02.487Z,7.71
2019-03-18T03:58:33.264Z,7.73
2019-03-18T04:01:04.050Z,7.73
2019-03-18T04:03:38.639Z,7.66
2019-03-18T04:06:07.367Z,7.60
2019-03-18T04:08:38.096Z,7.69
2019-03-18T04:11:09.176Z,7.84
2019-03-18T04:13:40.135Z,7.95
2019-03-18T04:16:11.576Z,7.98
2019-03-18T04:18:42.395Z,7.90
2019-03-18T04:21:13.367Z,7.87
2019-03-18T04:23:44.050Z,7.87
2019-03-18T04:26:15.758Z,7.90
2019-03-18T04:28:46.684Z,7.91
2019-03-18T04:31:17.637Z,7.92
2019-03-18T04:33:48.988Z,7.92
2019-03-18T04:36:19.768Z,7.91
2019-03-18T04:38:50.342Z,7.95
2019-03-18T04:41:20.866Z,7.98
2019-03-18T04:43:51.860Z,8.00
2019-03-18T04:46:22.694Z,8.10
2019-03-18T04:48:53.599Z,8.22
2019-03-18T04:51:24.313Z,8.31
2019-03-18T04:53:55.054Z,8.44
2019-03-18T04:56:25.716Z,8.61
2019-03-18T04:58:56.408Z,8.84
2019-03-18T05:01:27.340Z,9.11
2019-03-18T05:03:59.311Z,9.11
2019-03-18T05:06:30.080Z,9.45
2019-03-18T05:09:00.994Z,9.60
2019-03-18T05:11:31.842Z,9.60
2019-03-18T05:14:02.719Z,9.75
2019-03-18T05:16:33.290Z,9.95
2019-03-18T05:19:04.014Z,10.51
2019-03-18T05:21:34.963Z,11.61
2019-03-18T05:24:05.676Z,13.35
2019-03-18T05:26:36.409Z,14.84
2019-03-18T05:29:07.564Z,15.34
2019-03-18T05:31:38.268Z,15.62
2019-03-18T05:34:08.993Z,16.41
2019-03-18T05:36:40.328Z,17.08
2019-03-18T05:39:11.203Z,17.79
2019-03-18T05:41:41.752Z,18.33
2019-03-18T05:44:12.667Z,17.55
2019-03-18T05:46:44.323Z,17.08
2019-03-18T05:49:14.998Z,16.89
2019-03-18T05:51:46.599Z,17.16
2019-03-18T05:54:17.182Z,18.76
2019-03-18T05:56:47.916Z,20.25
2019-03-18T05:59:19.274Z,21.89
2019-03-18T06:01:49.878Z,23.02
2019-03-18T06:04:22.231Z,22.69
2019-03-18T06:06:52.932Z,22.46
2019-03-18T06:09:23.607Z,22.56
2019-03-18T06:11:54.213Z,21.84
2019-03-18T06:14:24.971Z,22.78
2019-03-18T06:16:56.102Z,24.35
2019-03-18T06:19:27.981Z,25.38
2019-03-18T06:21:59.011Z,26.61
2019-03-18T06:24:29.802Z,27.29
2019-03-18T06:27:00.573Z,27.28
2019-03-18T06:29:31.407Z,28.28
2019-03-18T06:32:02.029Z,28.19
2019-03-18T06:34:33.799Z,28.91
2019-03-18T06:37:07.681Z,27.65
2019-03-18T06:39:38.415Z,27.47
2019-03-18T06:42:09.366Z,27.32
2019-03-18T06:44:40.361Z,27.54
2019-03-18T06:47:12.428Z,28.44
2019-03-18T06:49:43.385Z,28.78
2019-03-18T06:52:14.150Z,29.13
2019-03-18T06:54:45.014Z,28.35
2019-03-18T06:57:15.747Z,27.83
2019-03-18T06:59:46.557Z,26.43
2019-03-18T07:02:18.375Z,25.13
2019-03-18T07:04:49.030Z,23.68
2019-03-18T07:07:20.177Z,22.22
2019-03-18T07:09:50.979Z,20.60
2019-03-18T07:12:21.917Z,18.53
2019-03-18T07:14:52.727Z,17.41
2019-03-18T07:17:23.404Z,16.80
2019-03-18T07:19:54.379Z,16.33
2019-03-18T07:22:26.375Z,16.10
2019-03-18T07:24:59.214Z,15.89
2019-03-18T07:27:31.541Z,15.63
2019-03-18T07:30:03.017Z,15.47
2019-03-18T07:32:33.980Z,15.07
2019-03-18T07:35:05.558Z,14.81
2019-03-18T07:37:36.047Z,14.69
2019-03-18T07:40:07.016Z,14.76
2019-03-18T07:42:37.574Z,14.81
2019-03-18T07:45:09.447Z,14.68
2019-03-18T07:47:40.310Z,14.75
2019-03-18T07:50:11.362Z,14.78
2019-03-18T07:52:42.161Z,14.80
2019-03-18T07:55:13.277Z,14.71
2019-03-18T07:57:43.869Z,14.84
2019-03-18T08:00:14.776Z,14.92
2019-03-18T08:02:45.869Z,14.99
2019-03-18T08:05:16.445Z,14.96
2019-03-18T08:07:47.402Z,15.17
2019-03-18T08:10:18.062Z,15.28
2019-03-18T08:12:48.758Z,15.40
2019-03-18T08:15:19.555Z,15.51
2019-03-18T08:17:51.744Z,15.57
2019-03-18T08:20:22.193Z,15.72
2019-03-18T08:22:52.802Z,15.73
2019-03-18T08:25:24.521Z,15.78
2019-03-18T08:27:57.940Z,15.82
2019-03-18T08:30:30.901Z,15.94
2019-03-18T08:33:01.701Z,16.07
2019-03-18T08:35:32.419Z,16.09
2019-03-18T08:38:03.130Z,16.06
2019-03-18T08:40:33.795Z,15.98
2019-03-18T08:43:04.446Z,16.09
2019-03-18T08:45:35.395Z,16.13
2019-03-18T08:48:06.351Z,16.20
2019-03-18T08:50:36.774Z,16.33
2019-03-18T08:53:08.356Z,16.36
2019-03-18T08:55:39.709Z,16.39
2019-03-18T08:58:12.100Z,16.39
2019-03-18T09:00:42.662Z,16.38
2019-03-18T09:03:13.352Z,16.25
2019-03-18T09:05:43.937Z,16.16
2019-03-18T09:08:14.573Z,16.12
2019-03-18T09:10:48.094Z,16.04
2019-03-18T09:13:18.749Z,15.98
2019-03-18T09:15:49.484Z,15.92
2019-03-18T09:18:20.160Z,15.84
2019-03-18T09:20:50.811Z,15.82
2019-03-18T09:23:21.265Z,15.68
2019-03-18T09:25:52.122Z,15.61
2019-03-18T09:28:22.804Z,15.46
2019-03-18T09:30:53.519Z,15.52
2019-03-18T09:33:25.179Z,15.50
2019-03-18T09:35:55.700Z,15.41
2019-03-18T09:38:26.215Z,15.42
2019-03-18T09:40:57.123Z,15.29
2019-03-18T09:43:27.885Z,15.39
2019-03-18T09:45:58.506Z,15.38
2019-03-18T09:48:29.379Z,15.37
2019-03-18T09:51:01.470Z,15.38
2019-03-18T09:53:32.343Z,15.27
2019-03-18T09:56:03.392Z,14.99
2019-03-18T09:58:34.593Z,14.91
2019-03-18T10:01:05.274Z,14.83
2019-03-18T10:03:35.989Z,14.76
2019-03-18T10:06:07.418Z,14.71
2019-03-18T10:08:38.970Z,14.76
2019-03-18T10:11:09.641Z,14.72
2019-03-18T10:13:41.976Z,14.65
2019-03-18T10:16:12.501Z,14.70
2019-03-18T10:18:43.174Z,14.83
2019-03-18T10:21:13.776Z,14.87
2019-03-18T10:23:44.432Z,14.91
2019-03-18T10:26:15.115Z,14.93
2019-03-18T10:28:45.592Z,15.08
2019-03-18T10:31:17.355Z,15.16
2019-03-18T10:33:49.459Z,15.17
2019-03-18T10:36:20.080Z,15.12
2019-03-18T10:38:52.744Z,15.04
2019-03-18T10:41:22.980Z,14.94
2019-03-18T10:43:53.729Z,14.89
2019-03-18T10:46:26.276Z,14.95
2019-03-18T10:48:56.695Z,14.88
2019-03-18T10:51:27.235Z,14.93
2019-03-18T10:53:57.916Z,14.97
2019-03-18T10:56:28.955Z,14.98
2019-03-18T10:58:59.395Z,14.94
2019-03-18T11:01:29.798Z,14.95
2019-03-18T11:04:00.432Z,15.00
2019-03-18T11:06:31.040Z,15.08
2019-03-18T11:09:01.441Z,14.98
2019-03-18T11:11:31.949Z,14.87
2019-03-18T11:14:02.414Z,14.90
2019-03-18T11:16:33.363Z,14.95
2019-03-18T11:19:04.036Z,15.09
2019-03-18T11:21:34.383Z,15.10
2019-03-18T11:24:04.817Z,15.02
2019-03-18T11:26:35.265Z,15.07
2019-03-18T11:29:08.587Z,15.08
2019-03-18T11:31:39.310Z,15.03
2019-03-18T11:34:11.474Z,15.14
2019-03-18T11:36:42.262Z,15.22
2019-03-18T11:39:13.390Z,15.15
2019-03-18T11:41:44.183Z,15.14
2019-03-18T11:44:14.861Z,15.14
2019-03-18T11:46:47.006Z,15.11
2019-03-18T11:49:18.513Z,15.11
2019-03-18T11:51:50.248Z,15.14
2019-03-18T11:54:22.286Z,15.30
2019-03-18T11:56:56.159Z,15.34
2019-03-18T11:59:26.953Z,15.42
2019-03-18T12:01:57.695Z,15.51
2019-03-18T12:04:32.849Z,15.52
2019-03-18T12:07:03.653Z,15.60
2019-03-18T12:09:34.324Z,15.69
2019-03-18T12:12:06.263Z,15.69
2019-03-18T12:14:36.741Z,15.41
2019-03-18T12:17:07.060Z,15.44
2019-03-18T12:19:38.652Z,15.52
2019-03-18T12:22:09.388Z,15.58
2019-03-18T12:24:41.050Z,15.53
2019-03-18T12:27:11.787Z,15.60
2019-03-18T12:29:43.022Z,15.41
2019-03-18T12:32:13.459Z,15.44
2019-03-18T12:34:44.946Z,15.41
2019-03-18T12:37:16.059Z,15.34
2019-03-18T12:39:46.805Z,15.33
2019-03-18T12:42:17.506Z,15.24
2019-03-18T12:44:48.027Z,15.17
2019-03-18T12:47:18.586Z,15.07
2019-03-18T12:49:49.202Z,15.14
2019-03-18T12:52:19.726Z,15.15
2019-03-18T12:54:51.035Z,15.19
2019-03-18T12:57:21.711Z,15.20
2019-03-18T12:59:52.064Z,15.13
2019-03-18T13:02:22.802Z,15.16
2019-03-18T13:04:53.169Z,15.26
2019-03-18T13:07:23.788Z,15.27
2019-03-18T13:09:54.908Z,15.38
2019-03-18T13:12:25.447Z,15.37
2019-03-18T13:14:55.919Z,15.40
2019-03-18T13:17:26.352Z,15.41
2019-03-18T13:19:57.115Z,15.47
2019-03-18T13:22:27.471Z,15.48
2019-03-18T13:24:58.171Z,15.64
2019-03-18T13:45:34.695Z,16.33
2019-03-18T13:48:05.327Z,16.25
2019-03-18T13:50:39.388Z,16.06
2019-03-18T13:53:10.241Z,16.05
2019-03-18T13:55:41.096Z,15.87
2019-03-18T13:58:11.594Z,15.86
2019-03-18T14:00:42.061Z,15.76
2019-03-18T14:03:12.782Z,15.70
2019-03-18T14:05:43.604Z,15.48
2019-03-18T14:08:14.098Z,15.46
2019-03-18T14:10:44.629Z,15.38
2019-03-18T14:13:15.737Z,15.35
2019-03-18T14:15:47.393Z,15.43
2019-03-18T14:18:17.948Z,15.46
2019-03-18T14:20:49.054Z,15.33
2019-03-18T14:23:20.637Z,15.28
2019-03-18T14:25:52.938Z,15.22
2019-03-18T14:28:23.706Z,15.10
2019-03-18T14:30:54.264Z,15.12
2019-03-18T14:33:24.805Z,15.10
2019-03-18T14:35:55.333Z,14.92
2019-03-18T14:38:25.864Z,14.83
2019-03-18T14:40:56.573Z,14.68
2019-03-18T14:43:27.314Z,14.52
2019-03-18T14:45:57.881Z,14.51
2019-03-18T14:48:28.483Z,14.48
2019-03-18T14:50:59.449Z,14.37
2019-03-18T14:53:30.118Z,14.34
2019-03-18T14:56:00.704Z,14.28
2019-03-18T14:58:51.464Z,14.21
2019-03-18T15:01:22.389Z,14.21
2019-03-18T15:03:52.849Z,14.24
2019-03-18T15:06:23.843Z,14.27
2019-03-18T15:08:54.231Z,14.28
2019-03-18T15:11:24.800Z,14.30
2019-03-18T15:13:56.864Z,14.21
2019-03-18T15:16:27.850Z,14.16
2019-03-18T15:18:59.530Z,14.13
2019-03-18T15:21:30.038Z,14.03
2019-03-18T15:24:01.030Z,13.96
2019-03-18T15:26:31.994Z,13.91
2019-03-18T15:29:03.487Z,13.85
2019-03-18T15:31:34.155Z,13.72
2019-03-18T15:34:04.820Z,13.78
2019-03-18T15:36:35.489Z,13.67
2019-03-18T15:39:08.092Z,13.68
2019-03-18T15:41:38.861Z,13.65
2019-03-18T15:44:11.376Z,13.64
2019-03-18T15:46:41.895Z,13.62
2019-03-18T15:49:12.514Z,13.65
2019-03-18T15:51:44.360Z,13.64
2019-03-18T15:54:15.091Z,13.58
2019-03-18T15:56:45.473Z,13.55
2019-03-18T15:59:16.223Z,13.53
2019-03-18T16:01:46.879Z,13.46
2019-03-18T16:04:17.635Z,13.46
2019-03-18T16:06:48.374Z,13.32
2019-03-18T16:09:21.820Z,13.28
2019-03-18T16:11:54.384Z,13.21
2019-03-18T16:14:27.051Z,13.07
2019-03-18T16:17:02.185Z,12.98
2019-03-18T16:19:29.945Z,12.92
2019-03-18T16:22:05.939Z,12.87
2019-03-18T16:24:37.131Z,12.77
2019-03-18T16:27:09.459Z,12.63
2019-03-18T16:29:40.022Z,12.57
2019-03-18T16:32:11.868Z,12.49
2019-03-18T16:34:43.398Z,12.47
2019-03-18T16:37:15.057Z,12.32
2019-03-18T16:39:46.204Z,12.30
2019-03-18T16:42:19.104Z,12.36
2019-03-18T16:44:49.596Z,12.30
2019-03-18T16:47:20.018Z,12.26
2019-03-18T16:49:50.408Z,12.23
2019-03-18T16:52:34.933Z,12.17
2019-03-18T16:54:55.270Z,12.16
2019-03-18T16:57:25.932Z,12.17
2019-03-18T16:59:56.478Z,12.11
2019-03-18T17:02:27.032Z,12.07
2019-03-18T17:04:57.499Z,12.10
2019-03-18T17:07:29.156Z,12.07
2019-03-18T17:09:59.850Z,12.08
2019-03-18T17:12:30.751Z,12.07
2019-03-18T17:15:01.575Z,12.04
2019-03-18T17:17:33.316Z,12.02
2019-03-18T17:20:03.959Z,12.02
2019-03-18T17:22:47.718Z,11.93
2019-03-18T17:25:11.285Z,11.92
2019-03-18T17:27:42.062Z,11.89
2019-03-18T17:30:16.526Z,11.90
2019-03-18T17:32:47.229Z,11.89
2019-03-18T17:35:20.295Z,11.86
2019-03-18T17:37:50.953Z,11.83
2019-03-18T17:40:21.586Z,11.89
2019-03-18T17:42:52.641Z,11.88
2019-03-18T17:45:23.186Z,11.88
2019-03-18T17:47:53.703Z,11.93
2019-03-18T17:50:24.360Z,11.96
2019-03-18T17:53:02.550Z,11.98
2019-03-18T17:55:27.051Z,11.94
2019-03-18T17:57:58.395Z,11.95
2019-03-18T18:00:36.513Z,12.01
2019-03-18T18:03:07.209Z,11.95
2019-03-18T18:05:37.683Z,11.93
2019-03-18T18:08:08.371Z,11.93
2019-03-18T18:10:39.033Z,11.94
2019-03-18T18:13:09.586Z,11.97
2019-03-18T18:15:40.018Z,11.96
2019-03-18T18:18:11.384Z,11.92
2019-03-18T18:20:42.002Z,11.91
2019-03-18T18:23:14.903Z,11.89
2019-03-18T18:25:46.482Z,11.82
2019-03-18T18:28:17.426Z,11.75
2019-03-18T18:30:48.254Z,11.71
2019-03-18T18:33:21.380Z,11.69
2019-03-18T18:35:51.955Z,11.61
2019-03-18T18:38:22.669Z,11.63
2019-03-18T18:40:53.339Z,11.58
2019-03-18T18:43:24.323Z,11.52
2019-03-18T18:45:56.067Z,11.52
2019-03-18T18:48:27.034Z,11.50
2019-03-18T18:50:57.750Z,11.49
2019-03-18T18:53:29.027Z,11.46
2019-03-18T18:56:01.967Z,11.46
2019-03-18T18:58:35.486Z,11.40
2019-03-18T19:01:06.911Z,11.41
2019-03-18T19:03:41.772Z,11.44
2019-03-18T19:06:13.218Z,11.42
2019-03-18T19:08:43.627Z,11.38
2019-03-18T19:11:14.296Z,11.28
2019-03-18T19:13:45.264Z,11.30
2019-03-18T19:16:16.783Z,11.25
2019-03-18T19:18:47.263Z,11.23
2019-03-18T19:21:18.020Z,11.19
2019-03-18T19:23:49.132Z,11.15
2019-03-18T19:26:19.402Z,11.11
2019-03-18T19:28:50.350Z,11.05
2019-03-18T19:31:22.257Z,11.04
2019-03-18T19:33:52.936Z,11.03
2019-03-18T19:36:23.729Z,11.03
2019-03-18T19:38:54.198Z,10.98
2019-03-18T19:41:25.002Z,10.99
2019-03-18T19:43:55.854Z,10.94
2019-03-18T19:46:27.339Z,10.86
2019-03-18T19:48:57.943Z,10.83
2019-03-18T19:51:29.855Z,10.79
2019-03-18T19:54:00.464Z,10.70
2019-03-18T19:56:31.026Z,10.70
2019-03-18T19:59:01.935Z,10.64
2019-03-18T20:01:32.595Z,10.68
2019-03-18T20:04:03.258Z,10.66
2019-03-18T20:06:34.256Z,10.62
2019-03-18T20:09:05.908Z,10.64
2019-03-18T20:11:36.722Z,10.53
2019-03-18T20:14:07.861Z,10.61
2019-03-18T20:16:38.703Z,10.58
2019-03-18T20:19:09.476Z,10.58
2019-03-18T20:21:39.864Z,10.59
2019-03-18T20:24:10.515Z,10.53
2019-03-18T20:26:41.194Z,10.45
2019-03-18T20:29:12.273Z,10.46
2019-03-18T20:31:42.640Z,10.40
2019-03-18T20:34:12.998Z,10.40
2019-03-18T20:36:43.629Z,10.35
2019-03-18T20:39:14.654Z,10.39
2019-03-18T20:41:44.946Z,10.37
2019-03-18T20:44:15.630Z,10.34
2019-03-18T20:46:46.390Z,10.29
2019-03-18T20:49:17.328Z,10.27
2019-03-18T20:51:47.985Z,10.28
2019-03-18T20:54:20.356Z,10.24
2019-03-18T20:56:51.268Z,10.26
2019-03-18T20:59:22.086Z,10.23
2019-03-18T21:01:52.609Z,10.19
2019-03-18T21:04:23.553Z,10.17
2019-03-18T21:06:54.437Z,10.18
2019-03-18T21:09:25.574Z,10.22
2019-03-18T21:11:56.500Z,10.20
2019-03-18T21:14:27.405Z,10.12
2019-03-18T21:16:58.330Z,10.11
2019-03-18T21:19:28.926Z,10.11
2019-03-18T21:21:59.374Z,10.10
2019-03-18T21:24:31.323Z,10.07
2019-03-18T21:27:02.126Z,9.99
2019-03-18T21:29:32.590Z,9.98
2019-03-18T21:32:03.280Z,10.03
2019-03-18T21:34:34.114Z,9.99
2019-03-18T21:37:04.732Z,9.93
2019-03-18T21:39:36.490Z,9.95
2019-03-18T21:42:07.402Z,9.95
2019-03-18T21:44:38.994Z,9.95
2019-03-18T21:47:09.431Z,9.97
2019-03-18T21:49:40.288Z,9.97
2019-03-18T21:52:10.993Z,9.93
2019-03-18T21:54:42.999Z,9.98
2019-03-18T21:57:13.824Z,9.97
2019-03-18T21:59:44.571Z,9.96
2019-03-18T22:02:15.057Z,9.96
2019-03-18T22:04:46.044Z,9.97
2019-03-18T22:07:17.065Z,10.00
2019-03-18T22:09:47.418Z,10.00
2019-03-18T22:12:17.922Z,10.00
2019-03-18T22:14:48.598Z,10.00
2019-03-18T22:17:19.112Z,9.99
2019-03-18T22:19:49.849Z,10.04
2019-03-18T22:22:20.195Z,10.04
2019-03-18T22:24:50.778Z,10.06
2019-03-18T22:27:21.516Z,9.97
2019-03-18T22:29:52.201Z,10.05
2019-03-18T22:32:25.049Z,10.04
2019-03-18T22:34:55.813Z,10.04
2019-03-18T22:37:26.235Z,10.02
2019-03-18T22:39:57.120Z,10.02
2019-03-18T22:42:28.695Z,10.05
2019-03-18T22:44:59.363Z,10.07
2019-03-18T22:47:30.276Z,10.03
2019-03-18T22:50:02.296Z,9.95
2019-03-18T22:52:33.911Z,10.02
2019-03-18T22:55:06.349Z,10.02
2019-03-18T22:57:37.034Z,9.93
2019-03-18T23:00:49.158Z,9.97
2019-03-18T23:03:19.822Z,9.97
2019-03-18T23:05:50.717Z,10.01
2019-03-18T23:08:21.278Z,10.01
2019-03-18T23:10:51.931Z,10.01
2019-03-18T23:13:23.983Z,9.97
2019-03-18T23:15:55.267Z,10.00
2019-03-18T23:18:25.996Z,10.00
2019-03-18T23:20:56.691Z,9.96
2019-03-18T23:23:28.507Z,9.90
2019-03-18T23:25:59.023Z,9.95
2019-03-18T23:28:29.548Z,9.90
2019-03-18T23:31:00.297Z,9.89
2019-03-18T23:33:30.710Z,9.89
2019-03-18T23:36:01.438Z,9.86
2019-03-18T23:38:32.236Z,9.91
2019-03-18T23:41:02.652Z,9.88
2019-03-18T23:43:32.996Z,9.88
2019-03-18T23:46:03.461Z,9.88
2019-03-18T23:48:33.843Z,9.87
2019-03-18T23:51:04.281Z,9.87
2019-03-18T23:53:34.915Z,9.88
2019-03-18T23:56:05.350Z,9.86
2019-03-18T23:58:35.974Z,9.86
